createdAt,value
2022-12-11T00:00:23.681Z,89.17
2022-12-11T00:02:51.239Z,89.82
2022-12-11T00:05:18.848Z,90.36
2022-12-11T00:07:47.702Z,89.27
2022-12-11T00:10:15.181Z,89.53
2022-12-11T00:12:42.677Z,89.84
2022-12-11T00:15:11.313Z,90.18
2022-12-11T00:17:39.011Z,89.42
2022-12-11T00:20:07.911Z,90.74
2022-12-11T00:22:36.591Z,91.37
2022-12-11T00:25:06.477Z,92.13
2022-12-11T00:27:34.087Z,92.24
2022-12-11T00:30:01.615Z,91.45
2022-12-11T00:32:30.811Z,91.75
2022-12-11T00:35:01.171Z,91.88
2022-12-11T00:37:29.321Z,92.11
2022-12-11T00:39:57.285Z,92.51
2022-12-11T00:42:25.978Z,92.88
2022-12-11T00:44:54.819Z,92.97
2022-12-11T00:47:22.299Z,91.78
2022-12-11T00:49:50.259Z,91.79
2022-12-11T00:52:18.339Z,91.32
2022-12-11T00:54:45.910Z,92.33
2022-12-11T00:57:13.384Z,91.68
2022-12-11T00:59:42.226Z,92.00
2022-12-11T01:02:09.812Z,92.03
2022-12-11T01:04:38.023Z,92.77
2022-12-11T01:07:05.839Z,93.59
2022-12-11T01:09:50.603Z,93.30
2022-12-11T01:12:18.090Z,92.65
2022-12-11T01:14:46.871Z,92.19
2022-12-11T01:17:14.356Z,91.69
2022-12-11T01:19:41.950Z,91.42
2022-12-11T01:22:09.452Z,91.27
2022-12-11T01:24:38.018Z,90.43
2022-12-11T01:27:05.875Z,90.70
2022-12-11T01:29:33.454Z,90.86
2022-12-11T01:32:02.299Z,90.86
2022-12-11T01:34:30.233Z,90.72
2022-12-11T01:36:57.782Z,90.73
2022-12-11T01:39:25.671Z,90.67
2022-12-11T01:41:58.468Z,91.55
2022-12-11T01:45:17.679Z,90.40
2022-12-11T01:47:46.615Z,91.40
2022-12-11T01:50:14.761Z,90.87
2022-12-11T01:52:43.179Z,90.58
2022-12-11T01:55:11.245Z,90.43
2022-12-11T01:57:41.748Z,90.43
2022-12-11T02:00:10.929Z,90.37
2022-12-11T02:02:38.576Z,90.38
2022-12-11T02:05:08.879Z,89.01
2022-12-11T02:07:40.057Z,89.30
2022-12-11T02:10:09.444Z,89.97
2022-12-11T02:12:42.672Z,89.55
2022-12-11T02:15:17.455Z,89.69
2022-12-11T02:17:51.554Z,89.27
2022-12-11T02:20:24.743Z,89.06
2022-12-11T02:23:14.932Z,89.16
2022-12-11T02:25:53.219Z,89.63
2022-12-11T02:28:29.138Z,90.12
2022-12-11T02:31:00.754Z,89.81
2022-12-11T02:33:37.291Z,88.83
2022-12-11T02:36:07.058Z,88.77
2022-12-11T02:38:37.939Z,89.10
2022-12-11T02:41:08.224Z,88.38
2022-12-11T02:43:39.025Z,88.87
2022-12-11T02:46:08.787Z,89.67
2022-12-11T02:48:37.671Z,90.21
2022-12-11T02:51:07.705Z,89.29
2022-12-11T02:53:38.930Z,88.62
2022-12-11T02:56:11.337Z,88.19
2022-12-11T02:58:47.498Z,88.52
2022-12-11T03:01:15.140Z,88.85
2022-12-11T03:03:43.141Z,89.02
2022-12-11T03:06:13.391Z,89.45
2022-12-11T03:08:40.868Z,88.46
2022-12-11T03:11:11.439Z,87.23
2022-12-11T03:13:42.465Z,87.57
2022-12-11T03:16:16.322Z,86.74
2022-12-11T03:18:53.413Z,85.75
2022-12-11T03:21:28.473Z,85.42
2022-12-11T03:24:02.835Z,86.02
2022-12-11T03:26:38.295Z,85.99
2022-12-11T03:29:14.849Z,86.35
2022-12-11T03:31:45.010Z,86.05
2022-12-11T03:34:17.463Z,85.43
2022-12-11T03:36:48.444Z,85.83
2022-12-11T03:39:20.040Z,86.23
2022-12-11T03:41:50.346Z,87.35
2022-12-11T03:44:21.143Z,87.23
2022-12-11T03:46:51.327Z,86.21
2022-12-11T03:49:22.608Z,85.99
2022-12-11T03:51:53.125Z,85.30
2022-12-11T03:54:21.582Z,85.41
2022-12-11T03:56:51.339Z,86.11
2022-12-11T03:59:20.486Z,86.35
2022-12-11T04:01:48.053Z,85.65
2022-12-11T04:04:16.007Z,85.83
2022-12-11T04:06:43.537Z,86.40
2022-12-11T04:09:10.999Z,87.34
2022-12-11T04:11:39.476Z,86.51
2022-12-11T04:14:25.875Z,86.13
2022-12-11T04:16:55.168Z,85.86
2022-12-11T04:19:40.836Z,86.67
2022-12-11T04:22:27.610Z,85.52
2022-12-11T04:24:55.096Z,85.48
2022-12-11T04:27:36.573Z,85.19
2022-12-11T04:30:06.059Z,86.55
2022-12-11T04:32:36.041Z,86.32
2022-12-11T04:35:03.667Z,87.22
2022-12-11T04:37:31.469Z,87.31
2022-12-11T04:39:59.053Z,86.78
2022-12-11T04:42:26.558Z,86.25
2022-12-11T04:44:54.018Z,86.96
2022-12-11T04:47:21.494Z,87.32
2022-12-11T04:49:50.575Z,86.74
2022-12-11T04:52:18.607Z,86.89
2022-12-11T04:54:46.083Z,87.55
2022-12-11T04:57:13.559Z,87.03
2022-12-11T04:59:41.283Z,87.69
2022-12-11T05:02:08.780Z,87.62
2022-12-11T05:04:36.590Z,87.60
2022-12-11T05:07:05.519Z,87.48
2022-12-11T05:09:33.024Z,87.96
2022-12-11T05:12:00.505Z,85.17
2022-12-11T05:14:31.954Z,83.49
2022-12-11T05:16:59.783Z,82.91
2022-12-11T05:19:27.775Z,83.35
2022-12-11T05:21:55.147Z,83.24
2022-12-11T05:24:23.984Z,85.44
2022-12-11T05:26:51.458Z,86.55
2022-12-11T05:29:18.943Z,87.77
2022-12-11T05:31:46.470Z,89.11
2022-12-11T05:34:15.134Z,89.49
2022-12-11T05:36:42.679Z,90.19
2022-12-11T05:39:12.333Z,91.49
2022-12-11T05:41:41.146Z,91.59
2022-12-11T05:44:08.845Z,92.81
2022-12-11T05:46:36.624Z,91.07
2022-12-11T05:49:04.193Z,91.06
2022-12-11T05:51:34.171Z,91.32
2022-12-11T05:54:01.970Z,91.50
2022-12-11T05:56:31.075Z,91.20
2022-12-11T05:59:01.636Z,90.89
2022-12-11T06:01:31.235Z,91.43
2022-12-11T06:03:59.520Z,91.03
2022-12-11T06:06:27.813Z,90.78
2022-12-11T06:08:58.340Z,90.63
2022-12-11T06:11:28.171Z,90.09
2022-12-11T06:13:55.780Z,90.12
2022-12-11T06:16:25.484Z,90.80
2022-12-11T06:18:57.113Z,91.23
2022-12-11T06:21:51.713Z,91.53
2022-12-11T06:24:19.224Z,91.11
2022-12-11T06:26:46.689Z,91.00
2022-12-11T06:29:14.318Z,91.96
2022-12-11T06:31:43.171Z,91.73
2022-12-11T06:34:13.538Z,91.73
2022-12-11T06:36:41.468Z,91.09
2022-12-11T06:39:09.290Z,91.56
2022-12-11T06:41:36.649Z,91.45
2022-12-11T06:44:04.244Z,91.70
2022-12-11T06:46:31.714Z,92.21
2022-12-11T06:49:00.539Z,92.43
2022-12-11T06:51:28.040Z,92.68
2022-12-11T06:53:57.615Z,92.22
2022-12-11T06:56:26.062Z,91.19
2022-12-11T06:58:53.928Z,91.01
2022-12-11T07:01:23.586Z,90.80
2022-12-11T07:03:53.710Z,91.25
2022-12-11T07:06:23.063Z,90.80
2022-12-11T07:08:50.672Z,91.26
2022-12-11T07:11:19.786Z,91.70
2022-12-11T07:13:47.808Z,91.44
2022-12-11T07:16:17.566Z,90.94
2022-12-11T07:18:48.907Z,90.08
2022-12-11T07:21:16.389Z,90.15
2022-12-11T07:23:45.333Z,90.37
2022-12-11T07:26:14.362Z,90.86
2022-12-11T07:28:42.628Z,90.71
2022-12-11T07:31:12.174Z,89.98
2022-12-11T07:33:40.055Z,90.37
2022-12-11T07:36:08.991Z,89.50
2022-12-11T07:38:37.139Z,89.03
2022-12-11T07:41:07.764Z,88.78
2022-12-11T07:43:36.631Z,88.32
2022-12-11T07:46:05.334Z,88.12
2022-12-11T07:48:33.027Z,88.69
2022-12-11T07:51:09.819Z,88.54
2022-12-11T07:53:37.320Z,88.07
2022-12-11T07:56:07.002Z,87.94
2022-12-11T07:58:34.865Z,88.59
2022-12-11T08:01:02.762Z,87.92
2022-12-11T08:03:30.374Z,87.82
2022-12-11T08:05:57.941Z,87.18
2022-12-11T08:08:26.007Z,87.77
2022-12-11T08:10:53.578Z,87.44
2022-12-11T08:13:22.391Z,87.94
2022-12-11T08:15:49.927Z,86.54
2022-12-11T08:18:17.496Z,86.25
2022-12-11T08:20:45.051Z,86.47
2022-12-11T08:23:12.564Z,86.53
2022-12-11T08:25:41.162Z,85.94
2022-12-11T08:28:08.841Z,86.60
2022-12-11T08:30:39.966Z,87.17
2022-12-11T08:33:07.837Z,86.46
2022-12-11T08:35:40.288Z,86.29
2022-12-11T08:38:08.940Z,86.11
2022-12-11T08:40:36.476Z,86.01
2022-12-11T08:43:03.922Z,86.20
2022-12-11T08:45:31.548Z,85.96
2022-12-11T08:48:00.757Z,83.37
2022-12-11T08:50:28.359Z,84.46
2022-12-11T08:52:55.875Z,83.92
2022-12-11T08:55:23.381Z,83.79
2022-12-11T08:57:50.980Z,83.51
2022-12-11T09:00:18.872Z,83.99
2022-12-11T09:02:46.272Z,83.32
2022-12-11T09:05:15.139Z,82.96
2022-12-11T09:07:42.609Z,82.49
2022-12-11T09:10:10.967Z,83.22
2022-12-11T09:12:38.714Z,83.44
2022-12-11T09:15:07.107Z,83.49
2022-12-11T09:17:35.225Z,83.79
2022-12-11T09:20:03.031Z,84.07
2022-12-11T09:22:33.057Z,84.14
2022-12-11T09:25:00.573Z,84.19
2022-12-11T09:27:29.155Z,83.64
2022-12-11T09:29:56.671Z,82.90
2022-12-11T09:32:24.193Z,81.88
2022-12-11T09:34:51.784Z,82.00
2022-12-11T09:37:19.246Z,80.57
2022-12-11T09:39:48.360Z,81.59
2022-12-11T09:42:22.226Z,81.65
2022-12-11T09:44:54.674Z,79.84
2022-12-11T09:47:27.375Z,79.91
2022-12-11T09:50:04.019Z,81.11
2022-12-11T09:52:38.416Z,80.97
2022-12-11T09:55:15.857Z,80.69
2022-12-11T09:57:51.595Z,81.13
2022-12-11T10:00:25.718Z,83.28
2022-12-11T10:03:40.992Z,82.48
2022-12-11T10:06:15.231Z,82.26
2022-12-11T10:08:49.351Z,81.99
2022-12-11T10:11:40.011Z,80.72
2022-12-11T10:14:14.742Z,81.09
2022-12-11T10:16:45.946Z,81.06
2022-12-11T10:19:18.190Z,79.84
2022-12-11T10:21:47.127Z,81.10
2022-12-11T10:24:42.226Z,79.61
2022-12-11T10:27:21.131Z,79.08
2022-12-11T10:29:52.621Z,79.45
2022-12-11T10:32:25.318Z,78.44
2022-12-11T10:34:58.420Z,78.38
2022-12-11T10:37:25.952Z,78.67
2022-12-11T10:39:53.468Z,78.03
2022-12-11T10:42:24.160Z,76.92
2022-12-11T10:44:59.731Z,76.79
2022-12-11T10:47:27.500Z,77.56
2022-12-11T10:49:58.336Z,76.77
2022-12-11T10:52:28.358Z,76.82
2022-12-11T10:55:00.131Z,77.06
2022-12-11T10:57:32.106Z,76.12
2022-12-11T11:00:00.701Z,77.51
2022-12-11T11:02:31.991Z,76.95
2022-12-11T11:05:02.178Z,76.68
2022-12-11T11:07:31.420Z,77.05
2022-12-11T11:10:15.076Z,77.58
2022-12-11T11:12:45.566Z,76.39
2022-12-11T11:15:16.255Z,75.56
2022-12-11T11:17:54.520Z,76.68
2022-12-11T11:20:25.381Z,75.77
2022-12-11T11:22:59.951Z,75.99
2022-12-11T11:25:29.557Z,76.14
2022-12-11T11:28:00.821Z,76.79
2022-12-11T11:30:31.012Z,77.29
2022-12-11T11:33:02.154Z,77.06
2022-12-11T11:35:31.561Z,76.65
2022-12-11T11:38:05.245Z,76.72
2022-12-11T11:40:38.553Z,76.61
2022-12-11T11:43:17.274Z,77.21
2022-12-11T11:45:50.684Z,78.16
2022-12-11T11:48:30.272Z,78.60
2022-12-11T11:50:58.771Z,77.79
2022-12-11T11:53:32.900Z,79.46
2022-12-11T11:56:08.385Z,78.73
2022-12-11T11:58:45.014Z,79.39
2022-12-11T12:01:16.229Z,79.31
2022-12-11T12:03:44.322Z,79.44
2022-12-11T12:06:17.770Z,79.71
2022-12-11T12:08:51.968Z,80.28
2022-12-11T12:11:30.756Z,80.41
2022-12-11T12:14:28.790Z,80.52
2022-12-11T12:17:07.279Z,81.32
2022-12-11T12:19:44.716Z,81.65
2022-12-11T12:22:25.058Z,81.23
2022-12-11T12:25:02.387Z,80.98
2022-12-11T12:30:24.305Z,81.34
2022-12-11T12:33:11.741Z,82.05
2022-12-11T12:35:46.261Z,81.02
2022-12-11T12:38:19.299Z,79.92
2022-12-11T12:40:56.581Z,80.82
2022-12-11T12:43:47.212Z,80.47
2022-12-11T12:46:27.127Z,80.04
2022-12-11T12:48:57.944Z,80.65
2022-12-11T12:51:27.162Z,81.04
2022-12-11T12:53:58.972Z,80.61
2022-12-11T12:56:28.345Z,80.36
2022-12-11T12:58:55.991Z,80.53
2022-12-11T13:01:27.812Z,78.94
2022-12-11T13:03:58.343Z,78.58
2022-12-11T13:06:37.017Z,78.75
2022-12-11T13:09:15.681Z,78.10
2022-12-11T13:11:43.236Z,78.29
2022-12-11T13:14:27.876Z,78.86
2022-12-11T13:17:09.266Z,78.74
2022-12-11T13:19:42.344Z,78.29
2022-12-11T13:22:23.269Z,78.70
2022-12-11T13:25:01.485Z,79.12
2022-12-11T13:27:39.072Z,78.14
2022-12-11T13:30:21.629Z,78.53
2022-12-11T13:33:02.619Z,78.00
2022-12-11T13:35:31.252Z,78.31
2022-12-11T13:38:04.733Z,78.41
2022-12-11T13:40:38.871Z,79.17
2022-12-11T13:43:11.156Z,78.71
2022-12-11T13:45:47.094Z,78.28
2022-12-11T13:48:23.669Z,79.44
2022-12-11T13:50:53.004Z,79.43
2022-12-11T13:53:22.185Z,78.44
2022-12-11T13:55:57.813Z,77.93
2022-12-11T13:58:26.187Z,79.76
2022-12-11T14:01:01.055Z,79.96
2022-12-11T14:03:31.399Z,80.44
2022-12-11T14:05:59.293Z,79.32
2022-12-11T14:08:31.737Z,79.40
2022-12-11T14:10:59.286Z,78.93
2022-12-11T14:13:32.262Z,79.66
2022-12-11T14:16:00.037Z,80.40
2022-12-11T14:18:32.651Z,80.76
2022-12-11T14:21:02.021Z,81.28
2022-12-11T14:23:31.737Z,81.82
2022-12-11T14:26:00.959Z,83.43
2022-12-11T14:28:30.557Z,83.72
2022-12-11T14:31:00.504Z,84.27
2022-12-11T14:33:33.335Z,85.48
2022-12-11T14:36:02.697Z,85.67
2022-12-11T14:38:34.396Z,85.53
2022-12-11T14:41:07.186Z,86.19
2022-12-11T14:43:39.796Z,86.94
2022-12-11T14:46:11.827Z,87.01
2022-12-11T14:48:47.393Z,87.77
2022-12-11T14:51:18.562Z,88.12
2022-12-11T14:53:48.846Z,88.16
2022-12-11T14:56:20.077Z,88.21
2022-12-11T14:58:56.436Z,87.86
2022-12-11T15:01:26.932Z,87.31
2022-12-11T15:04:06.332Z,86.87
2022-12-11T15:06:36.202Z,86.24
2022-12-11T15:09:21.225Z,85.18
2022-12-11T15:11:51.099Z,84.25
2022-12-11T15:14:21.748Z,82.87
2022-12-11T15:16:50.517Z,80.99
2022-12-11T15:19:24.034Z,82.47
2022-12-11T15:21:52.299Z,82.46
2022-12-11T15:24:26.946Z,82.04
2022-12-11T15:26:59.210Z,80.68
2022-12-11T15:29:33.016Z,81.27
2022-12-11T15:32:02.957Z,82.16
2022-12-11T15:34:36.379Z,82.21
2022-12-11T15:37:03.864Z,83.04
2022-12-11T15:39:31.477Z,82.96
2022-12-11T15:41:58.957Z,83.80
2022-12-11T15:44:26.473Z,83.88
2022-12-11T15:46:53.972Z,83.31
2022-12-11T15:49:24.107Z,83.45
2022-12-11T15:51:54.440Z,83.45
2022-12-11T15:54:21.971Z,82.98
2022-12-11T15:56:49.429Z,82.64
2022-12-11T15:59:17.137Z,82.83
2022-12-11T16:01:45.073Z,83.06
2022-12-11T16:04:12.483Z,83.40
2022-12-11T16:06:45.119Z,83.41
2022-12-11T16:09:13.940Z,84.48
2022-12-11T16:11:41.410Z,85.02
2022-12-11T16:14:08.868Z,84.64
2022-12-11T16:16:36.342Z,85.04
2022-12-11T16:19:04.014Z,85.02
2022-12-11T16:21:31.652Z,85.52
2022-12-11T16:23:59.137Z,86.19
2022-12-11T16:26:28.109Z,85.03
2022-12-11T16:28:55.563Z,85.33
2022-12-11T16:31:23.451Z,84.84
2022-12-11T16:33:50.871Z,85.37
2022-12-11T16:36:20.820Z,84.50
2022-12-11T16:38:53.495Z,84.83
2022-12-11T16:41:22.681Z,85.01
2022-12-11T16:43:51.828Z,84.56
2022-12-11T16:46:23.070Z,84.55
2022-12-11T16:48:51.510Z,84.58
2022-12-11T16:51:19.084Z,85.48
2022-12-11T16:53:47.053Z,84.94
2022-12-11T16:56:14.379Z,84.94
2022-12-11T16:58:41.858Z,86.24
2022-12-11T17:01:13.643Z,86.18
2022-12-11T17:03:42.239Z,86.40
2022-12-11T17:06:10.608Z,86.66
2022-12-11T17:08:38.382Z,86.46
2022-12-11T17:11:07.202Z,86.14
2022-12-11T17:13:36.301Z,86.66
2022-12-11T17:16:05.702Z,85.69
2022-12-11T17:18:34.810Z,85.97
2022-12-11T17:21:07.674Z,86.00
2022-12-11T17:23:35.647Z,86.23
2022-12-11T17:26:03.469Z,85.93
2022-12-11T17:28:31.363Z,86.43
2022-12-11T17:30:59.504Z,85.48
2022-12-11T17:33:26.981Z,86.05
2022-12-11T17:35:55.780Z,85.56
2022-12-11T17:38:23.241Z,85.81
2022-12-11T17:40:50.796Z,85.14
2022-12-11T17:43:18.271Z,85.92
2022-12-11T17:45:48.000Z,85.40
2022-12-11T17:48:16.635Z,85.73
2022-12-11T17:50:46.526Z,86.72
2022-12-11T17:53:16.691Z,87.16
2022-12-11T17:55:45.252Z,85.93
2022-12-11T17:58:14.231Z,86.08
2022-12-11T18:00:43.152Z,86.12
2022-12-11T18:03:11.476Z,86.01
2022-12-11T18:05:42.700Z,85.76
2022-12-11T18:08:13.067Z,85.17
2022-12-11T18:10:42.031Z,85.71
2022-12-11T18:13:10.447Z,85.41
2022-12-11T18:15:38.324Z,84.30
2022-12-11T18:18:06.209Z,84.21
2022-12-11T18:20:34.179Z,84.72
2022-12-11T18:23:01.884Z,84.69
2022-12-11T18:25:29.390Z,84.49
2022-12-11T18:27:59.489Z,84.08
2022-12-11T18:30:27.917Z,84.63
2022-12-11T18:32:55.422Z,84.42
2022-12-11T18:35:22.922Z,83.81
2022-12-11T18:37:50.414Z,83.47
2022-12-11T18:40:18.054Z,84.21
2022-12-11T18:42:45.544Z,83.26
2022-12-11T18:45:14.678Z,84.08
2022-12-11T18:47:42.320Z,84.00
2022-12-11T18:50:10.009Z,83.68
2022-12-11T18:52:37.527Z,83.29
2022-12-11T18:55:05.491Z,83.50
2022-12-11T18:57:33.238Z,84.36
2022-12-11T19:00:07.051Z,84.10
2022-12-11T19:02:36.242Z,84.95
2022-12-11T19:05:04.483Z,84.09
2022-12-11T19:07:32.192Z,84.78
2022-12-11T19:09:59.673Z,85.12
2022-12-11T19:12:27.157Z,84.87
2022-12-11T19:14:54.662Z,85.33
2022-12-11T19:17:22.155Z,84.99
2022-12-11T19:19:50.947Z,84.77
2022-12-11T19:22:18.486Z,85.27
2022-12-11T19:24:45.960Z,84.31
2022-12-11T19:27:13.966Z,85.85
2022-12-11T19:29:41.808Z,85.25
2022-12-11T19:32:09.591Z,84.99
2022-12-11T19:34:38.388Z,85.26
2022-12-11T19:37:07.287Z,85.18
2022-12-11T19:39:35.230Z,84.97
2022-12-11T19:42:02.582Z,86.08
2022-12-11T19:44:30.042Z,85.67
2022-12-11T19:46:57.607Z,86.20
2022-12-11T19:49:25.155Z,86.91
2022-12-11T19:51:52.622Z,86.98
2022-12-11T19:54:21.530Z,87.51
2022-12-11T19:56:49.044Z,88.00
2022-12-11T19:59:17.707Z,88.15
2022-12-11T20:01:46.759Z,87.32
2022-12-11T20:04:17.028Z,88.01
2022-12-11T20:06:46.486Z,88.04
2022-12-11T20:09:14.345Z,89.05
2022-12-11T20:11:43.821Z,88.47
2022-12-11T20:14:19.382Z,87.23
2022-12-11T20:17:09.974Z,88.15
2022-12-11T20:19:34.280Z,89.01
2022-12-11T20:22:01.745Z,89.30
2022-12-11T20:24:29.567Z,89.55
2022-12-11T20:26:58.362Z,89.91
2022-12-11T20:29:26.004Z,89.29
2022-12-11T20:31:53.563Z,90.02
2022-12-11T20:34:21.188Z,89.43
2022-12-11T20:36:49.365Z,89.30
2022-12-11T20:39:16.825Z,88.61
2022-12-11T20:41:44.372Z,89.31
2022-12-11T20:44:13.166Z,89.57
2022-12-11T20:46:40.757Z,88.37
2022-12-11T20:49:12.689Z,88.05
2022-12-11T20:51:41.030Z,87.88
2022-12-11T20:54:09.059Z,89.07
2022-12-11T20:56:36.867Z,88.74
2022-12-11T20:59:04.735Z,89.46
2022-12-11T21:01:34.760Z,88.99
2022-12-11T21:04:02.495Z,88.34
2022-12-11T21:06:31.936Z,88.95
2022-12-11T21:09:01.192Z,88.96
2022-12-11T21:11:28.884Z,89.82
2022-12-11T21:13:56.379Z,89.68
2022-12-11T21:16:24.556Z,89.86
2022-12-11T21:18:53.426Z,89.50
2022-12-11T21:21:21.057Z,90.25
2022-12-11T21:23:48.671Z,90.25
2022-12-11T21:26:16.352Z,89.86
2022-12-11T21:28:43.924Z,90.31
2022-12-11T21:31:14.668Z,89.83
2022-12-11T21:33:42.431Z,90.37
2022-12-11T21:36:13.593Z,91.11
2022-12-11T21:38:43.522Z,90.71
2022-12-11T21:41:14.198Z,91.11
2022-12-11T21:44:00.418Z,90.55
2022-12-11T22:01:04.905Z,90.77
2022-12-11T22:03:32.680Z,91.19
2022-12-11T22:06:00.142Z,90.91
2022-12-11T22:08:27.708Z,91.37
2022-12-11T22:10:56.560Z,91.00
2022-12-11T22:13:24.198Z,91.22
2022-12-11T22:15:52.185Z,90.55
2022-12-11T22:18:21.119Z,89.60
2022-12-11T22:20:49.011Z,90.53
2022-12-11T22:23:16.334Z,90.75
2022-12-11T22:25:43.817Z,90.69
2022-12-11T22:28:11.347Z,90.75
2022-12-11T22:30:39.976Z,90.85
2022-12-11T22:33:07.716Z,89.69
2022-12-11T22:35:36.811Z,90.32
2022-12-11T22:38:04.817Z,90.56
2022-12-11T22:40:32.340Z,90.24
2022-12-11T22:43:00.232Z,91.12
2022-12-11T22:45:27.595Z,90.58
2022-12-11T22:47:55.060Z,91.62
2022-12-11T22:50:22.588Z,92.22
2022-12-11T22:52:51.430Z,91.91
2022-12-11T22:55:19.054Z,91.87
2022-12-11T22:57:46.510Z,91.76
2022-12-11T23:00:14.939Z,91.96
2022-12-11T23:02:42.861Z,92.15
2022-12-11T23:05:12.281Z,91.63
2022-12-11T23:07:40.027Z,92.07
2022-12-11T23:10:10.583Z,92.11
2022-12-11T23:12:38.145Z,91.48
2022-12-11T23:15:06.511Z,91.92
2022-12-11T23:17:33.977Z,92.66
2022-12-11T23:20:03.646Z,92.67
2022-12-11T23:22:31.536Z,92.65
2022-12-11T23:24:58.868Z,93.04
2022-12-11T23:27:27.680Z,93.35
2022-12-11T23:29:55.328Z,93.48
2022-12-11T23:32:23.444Z,93.04
2022-12-11T23:34:51.116Z,93.33
2022-12-11T23:37:18.600Z,93.43
2022-12-11T23:39:46.064Z,93.59
2022-12-11T23:42:14.110Z,93.62
2022-12-11T23:44:43.110Z,93.53
2022-12-11T23:47:10.599Z,93.54
2022-12-11T23:49:38.079Z,93.22
2022-12-11T23:52:05.829Z,92.82
2022-12-11T23:54:33.290Z,92.91
2022-12-11T23:57:00.916Z,93.25
2022-12-11T23:59:28.395Z,92.80
